sensor_id;sensor_type;location;lat;lon;timestamp;pressure;altitude;pressure_sealevel;temperature;humidity
46199;BME280;31928;52.104;10.030;2023-04-10T19:31:35;100079.44;;;17.23;35.61
46199;BME280;31928;52.104;10.030;2023-04-10T19:34:02;100086.13;;;17.51;35.31
46199;BME280;31928;52.104;10.030;2023-04-10T19:36:34;100071.84;;;17.76;34.70
46199;BME280;31928;52.104;10.030;2023-04-10T19:39:02;100070.00;;;17.91;34.62
46199;BME280;31928;52.104;10.030;2023-04-10T19:41:29;100053.22;;;18.04;34.32
46199;BME280;31928;52.104;10.030;2023-04-10T19:43:56;100063.91;;;18.40;35.21
46199;BME280;31928;52.104;10.030;2023-04-10T19:46:23;100064.72;;;18.56;35.74
46199;BME280;31928;52.104;10.030;2023-04-10T19:48:50;100065.53;;;18.36;34.57
46199;BME280;31928;52.104;10.030;2023-04-10T19:51:17;100068.75;;;18.38;33.97
46199;BME280;31928;52.104;10.030;2023-04-10T19:53:44;100056.81;;;18.39;33.79
46199;BME280;31928;52.104;10.030;2023-04-10T19:56:10;100069.84;;;18.42;33.72
46199;BME280;31928;52.104;10.030;2023-04-10T19:58:37;100070.94;;;18.46;33.62
46199;BME280;31928;52.104;10.030;2023-04-10T20:01:07;100072.56;;;18.47;33.54
46199;BME280;31928;52.104;10.030;2023-04-10T20:03:34;100065.78;;;18.50;33.52
46199;BME280;31928;52.104;10.030;2023-04-10T20:06:03;100048.66;;;18.54;33.68
46199;BME280;31928;52.104;10.030;2023-04-10T20:08:29;100038.66;;;18.55;33.46
46199;BME280;31928;52.104;10.030;2023-04-10T20:10:56;100028.88;;;18.54;32.93
46199;BME280;31928;52.104;10.030;2023-04-10T20:13:23;100031.28;;;18.55;33.15
46199;BME280;31928;52.104;10.030;2023-04-10T20:15:50;100035.66;;;18.56;33.44
46199;BME280;31928;52.104;10.030;2023-04-10T20:18:17;100028.06;;;18.58;33.54
46199;BME280;31928;52.104;10.030;2023-04-10T20:20:44;100038.88;;;18.88;34.00
46199;BME280;31928;52.104;10.030;2023-04-10T20:23:11;100008.22;;;18.63;33.10
46199;BME280;31928;52.104;10.030;2023-04-10T20:25:38;100001.72;;;18.59;33.04
46199;BME280;31928;52.104;10.030;2023-04-10T20:28:05;100010.94;;;18.58;32.97
46199;BME280;31928;52.104;10.030;2023-04-10T20:30:31;100015.56;;;18.57;32.85
46199;BME280;31928;52.104;10.030;2023-04-10T20:32:58;100001.44;;;18.55;32.87
46199;BME280;31928;52.104;10.030;2023-04-10T20:35:25;99989.78;;;18.55;32.54
46199;BME280;31928;52.104;10.030;2023-04-10T20:37:52;99999.78;;;18.54;32.51
46199;BME280;31928;52.104;10.030;2023-04-10T20:40:18;99981.56;;;18.89;33.89
46199;BME280;31928;52.104;10.030;2023-04-10T20:42:45;99990.28;;;18.62;33.04
46199;BME280;31928;52.104;10.030;2023-04-10T20:45:12;99992.69;;;18.93;33.71
46199;BME280;31928;52.104;10.030;2023-04-10T20:47:38;99994.66;;;18.58;32.31
46199;BME280;31928;52.104;10.030;2023-04-10T20:50:06;99986.78;;;18.56;32.89
46199;BME280;31928;52.104;10.030;2023-04-10T20:52:33;99968.84;;;18.55;32.81
46199;BME280;31928;52.104;10.030;2023-04-10T20:55:01;99971.03;;;18.53;32.71
46199;BME280;31928;52.104;10.030;2023-04-10T20:57:27;99965.06;;;18.51;32.52
46199;BME280;31928;52.104;10.030;2023-04-10T20:59:54;99953.13;;;18.52;32.59
46199;BME280;31928;52.104;10.030;2023-04-10T21:02:21;99951.94;;;18.88;34.52
46199;BME280;31928;52.104;10.030;2023-04-10T21:04:49;99947.41;;;18.59;32.86
46199;BME280;31928;52.104;10.030;2023-04-10T21:07:15;99952.56;;;18.55;32.68
46199;BME280;31928;52.104;10.030;2023-04-10T21:09:42;99944.31;;;18.90;34.52
46199;BME280;31928;52.104;10.030;2023-04-10T21:12:09;99935.19;;;18.61;33.05
46199;BME280;31928;52.104;10.030;2023-04-10T21:14:35;99921.78;;;18.89;33.77
46199;BME280;31928;52.104;10.030;2023-04-10T21:17:02;99935.75;;;18.58;32.54
46199;BME280;31928;52.104;10.030;2023-04-10T21:19:28;99925.97;;;18.52;32.67
46199;BME280;31928;52.104;10.030;2023-04-10T21:21:55;99927.88;;;18.52;33.11
46199;BME280;31928;52.104;10.030;2023-04-10T21:24:22;99938.47;;;18.48;32.81
46199;BME280;31928;52.104;10.030;2023-04-10T21:26:49;99931.03;;;18.83;34.33
46199;BME280;31928;52.104;10.030;2023-04-10T21:29:15;99920.25;;;18.54;32.77
46199;BME280;31928;52.104;10.030;2023-04-10T21:31:42;99911.84;;;18.50;32.47
46199;BME280;31928;52.104;10.030;2023-04-10T21:34:09;99915.66;;;18.49;32.65
46199;BME280;31928;52.104;10.030;2023-04-10T21:36:37;99924.91;;;18.48;32.35
46199;BME280;31928;52.104;10.030;2023-04-10T21:39:04;99904.25;;;18.47;32.48
46199;BME280;31928;52.104;10.030;2023-04-10T21:41:35;99911.59;;;18.47;32.49
46199;BME280;31928;52.104;10.030;2023-04-10T21:44:03;99916.75;;;18.43;32.34
46199;BME280;31928;52.104;10.030;2023-04-10T21:46:32;99916.75;;;18.43;32.45
46199;BME280;31928;52.104;10.030;2023-04-10T21:48:59;99928.41;;;18.44;32.57
46199;BME280;31928;52.104;10.030;2023-04-10T21:51:26;99915.13;;;18.42;32.37
46199;BME280;31928;52.104;10.030;2023-04-10T21:53:53;99913.50;;;18.41;32.90
46199;BME280;31928;52.104;10.030;2023-04-10T21:56:20;99912.41;;;18.42;32.74
46199;BME280;31928;52.104;10.030;2023-04-10T21:58:46;99909.69;;;18.37;32.74
46199;BME280;31928;52.104;10.030;2023-04-10T22:01:13;99929.53;;;18.38;32.64
46199;BME280;31928;52.104;10.030;2023-04-10T22:03:40;99942.53;;;18.36;33.41
46199;BME280;31928;52.104;10.030;2023-04-10T22:06:10;99921.91;;;18.35;34.70
46199;BME280;31928;52.104;10.030;2023-04-10T22:08:36;99933.25;;;18.67;34.27
46199;BME280;31928;52.104;10.030;2023-04-10T22:11:06;99934.16;;;18.22;35.05
46199;BME280;31928;52.104;10.030;2023-04-10T22:13:33;99927.38;;;18.20;36.09
46199;BME280;31928;52.104;10.030;2023-04-10T22:16:00;99938.47;;;18.43;35.13
46199;BME280;31928;52.104;10.030;2023-04-10T22:18:31;99939.03;;;18.06;36.27
46199;BME280;31928;52.104;10.030;2023-04-10T22:20:57;99948.22;;;18.00;37.00
46199;BME280;31928;52.104;10.030;2023-04-10T22:23:24;99933.88;;;18.34;36.10
46199;BME280;31928;52.104;10.030;2023-04-10T22:25:51;99937.94;;;17.92;37.55
46199;BME280;31928;52.104;10.030;2023-04-10T22:28:17;99934.69;;;18.14;36.73
46199;BME280;31928;52.104;10.030;2023-04-10T22:30:44;99925.41;;;17.76;38.32
46199;BME280;31928;52.104;10.030;2023-04-10T22:33:11;99915.13;;;17.68;38.13
46199;BME280;31928;52.104;10.030;2023-04-10T22:35:37;99912.97;;;17.95;36.85
46199;BME280;31928;52.104;10.030;2023-04-10T22:38:04;99908.06;;;17.57;38.98
46199;BME280;31928;52.104;10.030;2023-04-10T22:40:31;99911.88;;;17.86;37.19
46199;BME280;31928;52.104;10.030;2023-04-10T22:42:57;99907.75;;;17.39;39.63
46199;BME280;31928;52.104;10.030;2023-04-10T22:45:24;99901.84;;;17.71;37.94
46199;BME280;31928;52.104;10.030;2023-04-10T22:47:51;99895.00;;;17.34;40.10
46199;BME280;31928;52.104;10.030;2023-04-10T22:50:17;99885.84;;;17.60;37.97
46199;BME280;31928;52.104;10.030;2023-04-10T22:52:44;99890.06;;;17.21;41.48
46199;BME280;31928;52.104;10.030;2023-04-10T22:55:10;99889.06;;;17.47;38.95
46199;BME280;31928;52.104;10.030;2023-04-10T22:57:37;99878.09;;;17.07;42.29
46199;BME280;31928;52.104;10.030;2023-04-10T23:00:04;99882.25;;;17.35;39.61
46199;BME280;31928;52.104;10.030;2023-04-10T23:02:31;99888.38;;;16.95;42.91
46199;BME280;31928;52.104;10.030;2023-04-10T23:04:58;99893.16;;;16.83;43.17
46199;BME280;31928;52.104;10.030;2023-04-10T23:07:24;99898.44;;;17.15;39.65
46199;BME280;31928;52.104;10.030;2023-04-10T23:09:53;99903.13;;;16.73;43.51
46199;BME280;31928;52.104;10.030;2023-04-10T23:12:19;99907.88;;;17.02;40.77
46199;BME280;31928;52.104;10.030;2023-04-10T23:14:46;99909.06;;;16.65;44.12
46199;BME280;31928;52.104;10.030;2023-04-10T23:17:13;99899.97;;;16.91;40.95
46199;BME280;31928;52.104;10.030;2023-04-10T23:19:39;99905.19;;;16.51;44.90
46199;BME280;31928;52.104;10.030;2023-04-10T23:22:06;99899.13;;;16.81;41.07
46199;BME280;31928;52.104;10.030;2023-04-10T23:24:32;99904.31;;;16.41;45.64
46199;BME280;31928;52.104;10.030;2023-04-10T23:26:59;99919.97;;;16.34;46.39
46199;BME280;31928;52.104;10.030;2023-04-10T23:29:26;99922.28;;;16.21;47.64
46199;BME280;31928;52.104;10.030;2023-04-10T23:31:52;99932.81;;;16.53;42.94
46199;BME280;31928;52.104;10.030;2023-04-10T23:34:19;99921.97;;;16.12;48.22
46199;BME280;31928;52.104;10.030;2023-04-10T23:36:46;99921.56;;;15.99;48.79
46199;BME280;31928;52.104;10.030;2023-04-10T23:39:13;99915.53;;;16.23;46.27
46199;BME280;31928;52.104;10.030;2023-04-10T23:41:39;99909.81;;;15.83;48.78
46199;BME280;31928;52.104;10.030;2023-04-10T23:44:06;99912.72;;;16.08;45.64
46199;BME280;31928;52.104;10.030;2023-04-10T23:46:33;99899.69;;;15.69;48.62
46199;BME280;31928;52.104;10.030;2023-04-10T23:48:59;99892.25;;;15.55;48.35
46199;BME280;31928;52.104;10.030;2023-04-10T23:51:26;99883.00;;;15.46;48.64
46199;BME280;31928;52.104;10.030;2023-04-10T23:53:53;99880.19;;;15.36;49.15
46199;BME280;31928;52.104;10.030;2023-04-10T23:56:20;99880.66;;;15.28;49.37
46199;BME280;31928;52.104;10.030;2023-04-10T23:58:46;99882.13;;;15.19;49.82
